^^
Saratoga-Weather Station Historical Data
Daily Summary for April 16, 2020 Units:  Metric    English   Both
Daily Weekly Monthly Yearly Custom
  High: Low: Average:
Temperature: 17 °C 3.1 °C 10.4 °C
Dew Point: 8.7 °C 2.4 °C 6.1 °C
Humidity: 96% 56% 77%
Wind Speed: 13km/h 0km/h 2.5km/h
Wind Gust: 17.7km/h - -
Wind- - SW
Pressure: 1025.1 hPa 1012.9 hPa -
Precipitation: 0.0 mm    
Historical Graphs
 
 
Tabular Data for April 16, 2020
Time Temperature Dew Point Pressure Wind Wind Speed Wind Gust Humidity Rainfall Rate (Hourly) solar
00:01 5.8 °C 3.6 °C 1012.9 hPa Calm     86% 0.0 mm 0 W/m2
00:06 5.7 °C 3.5 °C 1012.9 hPa Calm     86% 0.0 mm 0 W/m2
00:11 5.7 °C 3.5 °C 1013.2 hPa Calm     86% 0.0 mm 0 W/m2
00:16 5.6 °C 3.6 °C 1013.2 hPa Calm     87% 0.0 mm 0 W/m2
00:21 5.5 °C 3.5 °C 1013.2 hPa Calm     87% 0.0 mm 0 W/m2
00:26 5.4 °C 3.4 °C 1012.9 hPa Calm     87% 0.0 mm 0 W/m2
00:31 5.3 °C 3.3 °C 1013.2 hPa Calm     87% 0.0 mm 0 W/m2
00:36 5.3 °C 3.3 °C 1012.9 hPa Calm     87% 0.0 mm 0 W/m2
00:41 5.3 °C 3.5 °C 1013.2 hPa Calm     88% 0.0 mm 0 W/m2
00:46 5.3 °C 3.5 °C 1013.2 hPa Calm     88% 0.0 mm 0 W/m2
00:51 5.2 °C 3.4 °C 1012.9 hPa Calm     88% 0.0 mm 0 W/m2
00:56 5.2 °C 3.4 °C 1013.2 hPa Calm     88% 0.0 mm 0 W/m2
01:01 5.1 °C 3.3 °C 1013.2 hPa Calm     88% 0.0 mm 0 W/m2
01:06 5.1 °C 3.4 °C 1013.2 hPa Calm     89% 0.0 mm 0 W/m2
01:11 5.1 °C 3.4 °C 1013.2 hPa Calm     89% 0.0 mm 0 W/m2
01:16 5 °C 3.3 °C 1013.2 hPa Calm     89% 0.0 mm 0 W/m2
01:21 4.9 °C 3.2 °C 1013.2 hPa Calm     89% 0.0 mm 0 W/m2
01:26 4.9 °C 3.2 °C 1013.2 hPa Calm     89% 0.0 mm 0 W/m2
01:31 4.8 °C 3.1 °C 1013.2 hPa Calm     89% 0.0 mm 0 W/m2
01:36 4.8 °C 3.1 °C 1013.2 hPa Calm     89% 0.0 mm 0 W/m2
01:41 4.8 °C 3.3 °C 1013.2 hPa Calm     90% 0.0 mm 0 W/m2
01:46 4.7 °C 3.2 °C 1013.5 hPa Calm     90% 0.0 mm 0 W/m2
01:51 4.7 °C 3.2 °C 1013.5 hPa Calm     90% 0.0 mm 0 W/m2
01:56 4.7 °C 3.2 °C 1013.5 hPa Calm     90% 0.0 mm 0 W/m2
02:01 4.6 °C 3.1 °C 1013.5 hPa Calm     90% 0.0 mm 0 W/m2
02:06 4.6 °C 3.1 °C 1013.5 hPa Calm     90% 0.0 mm 0 W/m2
02:11 4.6 °C 3.3 °C 1013.5 hPa Calm     91% 0.0 mm 0 W/m2
02:16 4.6 °C 3.3 °C 1013.5 hPa Calm     91% 0.0 mm 0 W/m2
02:21 4.6 °C 3.3 °C 1013.5 hPa Calm     91% 0.0 mm 0 W/m2
02:26 4.5 °C 3.2 °C 1013.5 hPa Calm     91% 0.0 mm 0 W/m2
02:31 4.4 °C 3.1 °C 1013.5 hPa Calm     91% 0.0 mm 0 W/m2
02:36 4.3 °C 3 °C 1013.5 hPa Calm     91% 0.0 mm 0 W/m2
02:41 4.3 °C 3 °C 1013.5 hPa Calm     91% 0.0 mm 0 W/m2
02:46 4.2 °C 2.9 °C 1013.5 hPa Calm     91% 0.0 mm 0 W/m2
02:51 4.2 °C 2.9 °C 1013.9 hPa Calm     91% 0.0 mm 0 W/m2
02:56 4.2 °C 2.9 °C 1013.9 hPa Calm     91% 0.0 mm 0 W/m2
03:01 4.1 °C 2.9 °C 1013.9 hPa Calm     92% 0.0 mm 0 W/m2
03:06 4.1 °C 2.9 °C 1013.9 hPa Calm     92% 0.0 mm 0 W/m2
03:11 4.2 °C 3 °C 1013.9 hPa Calm     92% 0.0 mm 0 W/m2
03:16 4.2 °C 3 °C 1013.9 hPa Calm   1.6 km/h 92% 0.0 mm 0 W/m2
03:21 4.2 °C 3 °C 1013.9 hPa Calm     92% 0.0 mm 0 W/m2
03:26 4.1 °C 2.9 °C 1013.9 hPa Calm     92% 0.0 mm 0 W/m2
03:31 4 °C 2.8 °C 1013.9 hPa Calm     92% 0.0 mm 0 W/m2
03:36 3.9 °C 2.7 °C 1013.9 hPa Calm     92% 0.0 mm 0 W/m2
03:41 3.9 °C 2.9 °C 1013.9 hPa Calm     93% 0.0 mm 0 W/m2
03:47 3.9 °C 2.9 °C 1014.2 hPa Calm     93% 0.0 mm 0 W/m2
03:52 3.9 °C 2.9 °C 1014.2 hPa Calm     93% 0.0 mm 0 W/m2
03:57 3.8 °C 2.8 °C 1014.2 hPa Calm     93% 0.0 mm 0 W/m2
04:02 3.8 °C 2.8 °C 1014.2 hPa Calm     93% 0.0 mm 0 W/m2
04:07 3.8 °C 2.8 °C 1014.2 hPa Calm     93% 0.0 mm 0 W/m2
04:12 3.7 °C 2.7 °C 1014.6 hPa Calm     93% 0.0 mm 0 W/m2
04:17 3.7 °C 2.7 °C 1014.6 hPa Calm     93% 0.0 mm 0 W/m2
04:22 3.6 °C 2.6 °C 1014.6 hPa Calm     93% 0.0 mm 0 W/m2
04:27 3.6 °C 2.6 °C 1014.6 hPa Calm     93% 0.0 mm 0 W/m2
04:33 3.5 °C 2.5 °C 1014.6 hPa Calm     93% 0.0 mm 0 W/m2
04:38 3.4 °C 2.4 °C 1014.6 hPa Calm     93% 0.0 mm 0 W/m2
04:43 3.5 °C 2.6 °C 1014.6 hPa Calm   1.6 km/h 94% 0.0 mm 0 W/m2
04:48 3.7 °C 2.8 °C 1014.6 hPa Calm   1.6 km/h 94% 0.0 mm 0 W/m2
04:53 3.8 °C 2.9 °C 1014.6 hPa Calm     94% 0.0 mm 0 W/m2
04:58 3.8 °C 2.9 °C 1014.9 hPa Calm     94% 0.0 mm 0 W/m2
05:03 3.7 °C 2.8 °C 1014.9 hPa Calm     94% 0.0 mm 0 W/m2
05:08 3.6 °C 2.7 °C 1015.2 hPa SSE 1.4 km/h 3.2 km/h 94% 0.0 mm 0 W/m2
05:13 3.5 °C 2.6 °C 1014.9 hPa Calm     94% 0.0 mm 0 W/m2
05:18 3.4 °C 2.5 °C 1014.9 hPa Calm   3.2 km/h 94% 0.0 mm 0 W/m2
05:23 3.4 °C 2.5 °C 1014.9 hPa Calm     94% 0.0 mm 0 W/m2
05:28 3.4 °C 2.5 °C 1014.9 hPa Calm   1.6 km/h 94% 0.0 mm 0 W/m2
05:33 3.4 °C 2.5 °C 1015.2 hPa Calm     94% 0.0 mm 0 W/m2
05:38 3.4 °C 2.5 °C 1015.2 hPa Calm     94% 0.0 mm 0 W/m2
05:43 3.3 °C 2.4 °C 1015.2 hPa Calm     94% 0.0 mm 0 W/m2
05:48 3.3 °C 2.4 °C 1015.2 hPa Calm     94% 0.0 mm 0 W/m2
05:53 3.3 °C 2.4 °C 1015.2 hPa SSE 3.2 km/h 3.2 km/h 94% 0.0 mm 0 W/m2
05:58 3.3 °C 2.4 °C 1015.2 hPa Calm   1.6 km/h 94% 0.0 mm 0 W/m2
06:03 3.3 °C 2.4 °C 1015.2 hPa Calm   3.2 km/h 94% 0.0 mm 0 W/m2
06:08 3.3 °C 2.4 °C 1015.2 hPa Calm     94% 0.0 mm 0 W/m2
06:13 3.3 °C 2.4 °C 1015.2 hPa Calm   3.2 km/h 94% 0.0 mm 0 W/m2
06:18 3.3 °C 2.4 °C 1015.2 hPa Calm     94% 0.0 mm 0 W/m2
06:23 3.3 °C 2.6 °C 1015.6 hPa Calm     95% 0.0 mm 0 W/m2
06:28 3.3 °C 2.6 °C 1015.6 hPa Calm     95% 0.0 mm 0 W/m2
06:33 3.3 °C 2.4 °C 1015.9 hPa Calm     94% 0.0 mm 0 W/m2
06:38 3.3 °C 2.6 °C 1015.9 hPa Calm     95% 0.0 mm 0 W/m2
06:43 3.3 °C 2.6 °C 1015.9 hPa Calm     95% 0.0 mm 0 W/m2
06:49 3.2 °C 2.5 °C 1016.3 hPa Calm     95% 0.0 mm 0 W/m2
06:54 3.2 °C 2.5 °C 1016.3 hPa Calm     95% 0.0 mm 7 W/m2
06:59 3.1 °C 2.4 °C 1016.3 hPa Calm     95% 0.0 mm 7 W/m2
07:04 3.2 °C 2.5 °C 1016.3 hPa Calm     95% 0.0 mm 9 W/m2
07:09 3.3 °C 2.6 °C 1016.6 hPa Calm     95% 0.0 mm 11 W/m2
07:14 3.5 °C 2.9 °C 1016.6 hPa Calm     96% 0.0 mm 14 W/m2
07:19 3.5 °C 2.8 °C 1016.6 hPa Calm   1.6 km/h 95% 0.0 mm 18 W/m2
07:24 3.4 °C 2.7 °C 1016.9 hPa Calm     95% 0.0 mm 18 W/m2
07:29 3.4 °C 2.7 °C 1016.9 hPa Calm     95% 0.0 mm 19 W/m2
07:34 3.4 °C 2.7 °C 1016.9 hPa Calm     95% 0.0 mm 23 W/m2
07:39 3.4 °C 2.7 °C 1016.9 hPa Calm     95% 0.0 mm 25 W/m2
07:44 3.6 °C 3 °C 1016.9 hPa Calm     96% 0.0 mm 26 W/m2
07:49 3.8 °C 3.2 °C 1016.9 hPa Calm   1.6 km/h 96% 0.0 mm 30 W/m2
07:54 3.8 °C 3.2 °C 1017.3 hPa Calm     96% 0.0 mm 49 W/m2
07:59 3.9 °C 3.2 °C 1017.3 hPa Calm     95% 0.0 mm 72 W/m2
08:04 3.9 °C 3.2 °C 1017.3 hPa Calm     95% 0.0 mm 62 W/m2
08:09 4 °C 3.3 °C 1017.3 hPa Calm     95% 0.0 mm 44 W/m2
08:14 4.1 °C 3.4 °C 1017.3 hPa Calm     95% 0.0 mm 44 W/m2
08:19 4.2 °C 3.6 °C 1017.3 hPa Calm     96% 0.0 mm 53 W/m2
08:24 4.3 °C 3.7 °C 1017.3 hPa Calm     96% 0.0 mm 176 W/m2
08:29 4.7 °C 4.1 °C 1017.6 hPa Calm     96% 0.0 mm 190 W/m2
08:34 4.9 °C 4.3 °C 1017.6 hPa Calm     96% 0.0 mm 213 W/m2
08:39 5.3 °C 4.7 °C 1017.6 hPa Calm     96% 0.0 mm 207 W/m2
08:44 5.6 °C 5 °C 1017.6 hPa Calm     96% 0.0 mm 207 W/m2
08:49 5.9 °C 5.3 °C 1017.6 hPa Calm     96% 0.0 mm 232 W/m2
08:54 6.4 °C 5.8 °C 1018.0 hPa ESE 4.8 km/h 4.8 km/h 96% 0.0 mm 243 W/m2
08:59 6.9 °C 6.2 °C 1018.0 hPa East 4.7 km/h 4.8 km/h 95% 0.0 mm 250 W/m2
09:04 7.5 °C 6.3 °C 1018.0 hPa ESE 6.4 km/h 9.7 km/h 92% 0.0 mm 244 W/m2
09:09 7.8 °C 6.1 °C 1018.0 hPa East 4.7 km/h 9.7 km/h 89% 0.0 mm 251 W/m2
09:14 8 °C 6.1 °C 1018.3 hPa ESE 4.7 km/h 6.4 km/h 88% 0.0 mm 278 W/m2
09:19 8.2 °C 6.2 °C 1018.3 hPa ESE 3.2 km/h 6.4 km/h 87% 0.0 mm 294 W/m2
09:24 8.6 °C 6.4 °C 1018.3 hPa ENE 3.2 km/h 6.4 km/h 86% 0.0 mm 308 W/m2
09:29 8.8 °C 6.4 °C 1018.3 hPa East 3.2 km/h 4.8 km/h 85% 0.0 mm 304 W/m2
09:34 9.2 °C 6.8 °C 1018.3 hPa East 1.4 km/h 3.2 km/h 85% 0.0 mm 350 W/m2
09:39 9.6 °C 6.9 °C 1018.3 hPa ESE 4.7 km/h 4.8 km/h 83% 0.0 mm 137 W/m2
09:45 9.7 °C 6.8 °C 1018.3 hPa ESE 1.4 km/h 4.8 km/h 82% 0.0 mm 366 W/m2
09:50 9.9 °C 7 °C 1018.3 hPa East 1.4 km/h 4.8 km/h 82% 0.0 mm 378 W/m2
09:55 10.4 °C 7.3 °C 1018.3 hPa SE 1.4 km/h 3.2 km/h 81% 0.0 mm 388 W/m2
10:00 10.9 °C 7.4 °C 1018.6 hPa East 3.2 km/h 6.4 km/h 79% 0.0 mm 396 W/m2
10:05 11.1 °C 7 °C 1018.6 hPa ENE 6.4 km/h 6.4 km/h 76% 0.0 mm 406 W/m2
10:10 11.1 °C 7 °C 1018.3 hPa ENE 3.2 km/h 6.4 km/h 76% 0.0 mm 415 W/m2
10:15 11.3 °C 7.2 °C 1018.6 hPa East 3.2 km/h 8 km/h 76% 0.0 mm 422 W/m2
10:20 11.6 °C 7.3 °C 1018.6 hPa NE 1.4 km/h 4.8 km/h 75% 0.0 mm 434 W/m2
10:25 11.9 °C 7.6 °C 1018.6 hPa SE 4.7 km/h 9.7 km/h 75% 0.0 mm 441 W/m2
10:30 12.1 °C 7.4 °C 1018.6 hPa East 6.4 km/h 6.4 km/h 73% 0.0 mm 448 W/m2
10:35 12.2 °C 7.5 °C 1019.0 hPa ESE 9.7 km/h 11.3 km/h 73% 0.0 mm 454 W/m2
10:40 12.6 °C 7.7 °C 1019.0 hPa East 1.4 km/h 4.8 km/h 72% 0.0 mm 464 W/m2
10:45 12.8 °C 7.7 °C 1019.0 hPa ESE 6.4 km/h 11.3 km/h 71% 0.0 mm 471 W/m2
10:50 13.1 °C 8 °C 1018.6 hPa East 4.7 km/h 4.8 km/h 71% 0.0 mm 476 W/m2
10:55 13.2 °C 8.1 °C 1018.6 hPa ENE 1.4 km/h 6.4 km/h 71% 0.0 mm 483 W/m2
11:00 13.3 °C 7.9 °C 1019.0 hPa NNW 3.2 km/h 8 km/h 70% 0.0 mm 490 W/m2
11:06 13.4 °C 8 °C 1019.0 hPa ESE 6.4 km/h 8 km/h 70% 0.0 mm 496 W/m2
11:11 13.6 °C 8 °C 1019.0 hPa NE 1.4 km/h 4.8 km/h 69% 0.0 mm 503 W/m2
11:16 13.8 °C 8 °C 1019.0 hPa ENE 6.4 km/h 8 km/h 68% 0.0 mm 506 W/m2
11:21 13.9 °C 7.9 °C 1019.0 hPa NE 1.4 km/h 6.4 km/h 67% 0.0 mm 512 W/m2
11:26 14.2 °C 8.2 °C 1019.0 hPa NW 3.2 km/h 9.7 km/h 67% 0.0 mm 519 W/m2
11:31 14.3 °C 8 °C 1019.0 hPa East 6.4 km/h 9.7 km/h 66% 0.0 mm 522 W/m2
11:36 14.4 °C 7.9 °C 1019.0 hPa SE 4.7 km/h 14.5 km/h 65% 0.0 mm 524 W/m2
11:41 14.7 °C 8 °C 1019.0 hPa East 3.2 km/h 9.7 km/h 64% 0.0 mm 527 W/m2
11:46 14.8 °C 8.1 °C 1019.0 hPa East 4.7 km/h 14.5 km/h 64% 0.0 mm 529 W/m2
11:51 15 °C 8.2 °C 1019.0 hPa ESE 3.2 km/h 8 km/h 64% 0.0 mm 536 W/m2
11:56 15.1 °C 8.1 °C 1019.0 hPa ENE 6.4 km/h 9.7 km/h 63% 0.0 mm 533 W/m2
12:01 15.1 °C 8.3 °C 1019.0 hPa ENE 6.4 km/h 6.4 km/h 64% 0.0 mm 520 W/m2
12:06 15.3 °C 8.3 °C 1019.0 hPa NNE 3.2 km/h 11.3 km/h 63% 0.0 mm 548 W/m2
12:11 15.1 °C 7.9 °C 1019.0 hPa East 11.1 km/h 11.3 km/h 62% 0.0 mm 538 W/m2
12:16 15.2 °C 8.2 °C 1019.0 hPa ENE 7.9 km/h 8 km/h 63% 0.0 mm 547 W/m2
12:21 15.4 °C 8.2 °C 1019.0 hPa ENE 4.7 km/h 9.7 km/h 62% 0.0 mm 536 W/m2
12:26 15.5 °C 8 °C 1019.3 hPa East 4.7 km/h 6.4 km/h 61% 0.0 mm 563 W/m2
12:31 15.4 °C 7.9 °C 1019.3 hPa SE 1.4 km/h 8 km/h 61% 0.0 mm 557 W/m2
12:36 15.5 °C 8 °C 1019.3 hPa ENE 3.2 km/h 6.4 km/h 61% 0.0 mm 557 W/m2
12:41 15.6 °C 8.1 °C 1019.3 hPa North 1.4 km/h 9.7 km/h 61% 0.0 mm 550 W/m2
12:46 15.8 °C 7.8 °C 1019.3 hPa NE 4.7 km/h 14.5 km/h 59% 0.0 mm 545 W/m2
12:51 15.8 °C 7.8 °C 1019.3 hPa NE 6.4 km/h 8 km/h 59% 0.0 mm 552 W/m2
12:56 15.7 °C 8 °C 1019.3 hPa SE 4.7 km/h 14.5 km/h 60% 0.0 mm 547 W/m2
13:01 15.8 °C 7.8 °C 1019.3 hPa East 4.7 km/h 4.8 km/h 59% 0.0 mm 536 W/m2
13:06 16.2 °C 8.2 °C 1019.3 hPa ESE 6.4 km/h 17.7 km/h 59% 0.0 mm 482 W/m2
13:11 16.3 °C 7.8 °C 1019.3 hPa Calm   9.7 km/h 57% 0.0 mm 543 W/m2
13:17 16.4 °C 7.9 °C 1019.3 hPa ENE 6.4 km/h 17.7 km/h 57% 0.0 mm 527 W/m2
13:22 16.6 °C 8 °C 1019.3 hPa ESE 3.2 km/h 6.4 km/h 57% 0.0 mm 541 W/m2
13:27 16.7 °C 7.9 °C 1019.3 hPa West 6.4 km/h 17.7 km/h 56% 0.0 mm 552 W/m2
13:32 16.6 °C 7.8 °C 1019.3 hPa WNW 4.7 km/h 12.9 km/h 56% 0.0 mm 559 W/m2
13:37 16.6 °C 8 °C 1019.6 hPa SW 1.4 km/h 14.5 km/h 57% 0.0 mm 555 W/m2
13:42 16.4 °C 7.9 °C 1019.3 hPa WNW 3.2 km/h 4.8 km/h 57% 0.0 mm 554 W/m2
13:47 16.4 °C 7.9 °C 1019.3 hPa West 9.7 km/h 17.7 km/h 57% 0.0 mm 468 W/m2
13:52 16.4 °C 7.6 °C 1019.3 hPa West 3.2 km/h 11.3 km/h 56% 0.0 mm 533 W/m2
13:57 16.4 °C 7.9 °C 1019.3 hPa NW 3.2 km/h 6.4 km/h 57% 0.0 mm 538 W/m2
14:02 16.4 °C 7.6 °C 1019.3 hPa West 6.4 km/h 17.7 km/h 56% 0.0 mm 522 W/m2
14:07 16.6 °C 7.8 °C 1019.3 hPa East 3.2 km/h 3.2 km/h 56% 0.0 mm 517 W/m2
14:12 16.8 °C 8 °C 1019.3 hPa WSW 7.9 km/h 16.1 km/h 56% 0.0 mm 510 W/m2
14:17 16.5 °C 7.7 °C 1019.3 hPa SW 3.2 km/h 9.7 km/h 56% 0.0 mm 223 W/m2
14:22 16.4 °C 7.6 °C 1019.3 hPa SW 3.2 km/h 4.8 km/h 56% 0.0 mm 290 W/m2
14:27 16.4 °C 7.6 °C 1019.6 hPa WSW 9.7 km/h 12.9 km/h 56% 0.0 mm 348 W/m2
14:32 16.4 °C 7.6 °C 1019.6 hPa NW 1.4 km/h 4.8 km/h 56% 0.0 mm 506 W/m2
14:37 16.6 °C 7.8 °C 1019.6 hPa NW 13 km/h 12.9 km/h 56% 0.0 mm 232 W/m2
14:42 16.4 °C 7.6 °C 1019.6 hPa West 11.1 km/h 11.3 km/h 56% 0.0 mm 234 W/m2
14:48 16.3 °C 7.5 °C 1019.6 hPa ENE 4.7 km/h 8 km/h 56% 0.0 mm 258 W/m2
14:53 16.3 °C 7.8 °C 1019.6 hPa WSW 3.2 km/h 8 km/h 57% 0.0 mm 450 W/m2
14:58 16.4 °C 7.9 °C 1019.6 hPa WNW 4.7 km/h 9.7 km/h 57% 0.0 mm 306 W/m2
15:03 16.6 °C 8 °C 1019.6 hPa WNW 4.7 km/h 8 km/h 57% 0.0 mm 204 W/m2
15:08 16.6 °C 8 °C 1019.6 hPa WNW 6.4 km/h 9.7 km/h 57% 0.0 mm 246 W/m2
15:13 16.5 °C 8.2 °C 1019.6 hPa WNW 4.7 km/h 6.4 km/h 58% 0.0 mm 225 W/m2
15:18 16.6 °C 8 °C 1019.6 hPa Calm   8 km/h 57% 0.0 mm 251 W/m2
15:23 16.7 °C 8.1 °C 1020.0 hPa West 6.4 km/h 6.4 km/h 57% 0.0 mm 199 W/m2
15:28 16.7 °C 7.9 °C 1020.0 hPa WNW 3.2 km/h 6.4 km/h 56% 0.0 mm 255 W/m2
15:33 16.7 °C 7.9 °C 1020.0 hPa SSE 1.4 km/h 1.6 km/h 56% 0.0 mm 309 W/m2
15:38 16.7 °C 8.1 °C 1020.0 hPa West 9.7 km/h 9.7 km/h 57% 0.0 mm 204 W/m2
15:43 16.6 °C 8 °C 1020.0 hPa NNW 4.7 km/h 9.7 km/h 57% 0.0 mm 188 W/m2
15:48 16.6 °C 8 °C 1020.0 hPa WNW 3.2 km/h 4.8 km/h 57% 0.0 mm 172 W/m2
15:53 16.6 °C 8.3 °C 1020.0 hPa WNW 1.4 km/h 4.8 km/h 58% 0.0 mm 151 W/m2
15:58 16.6 °C 8 °C 1020.0 hPa West 3.2 km/h 4.8 km/h 57% 0.0 mm 181 W/m2
16:03 16.7 °C 8.1 °C 1020.3 hPa Calm   3.2 km/h 57% 0.0 mm 362 W/m2
16:08 16.8 °C 8.2 °C 1020.3 hPa West 1.4 km/h 6.4 km/h 57% 0.0 mm 359 W/m2
16:13 17 °C 8.2 °C 1020.3 hPa NNW 4.7 km/h 8 km/h 56% 0.0 mm 236 W/m2
16:18 16.9 °C 8.1 °C 1020.3 hPa West 4.7 km/h 8 km/h 56% 0.0 mm 181 W/m2
16:23 16.9 °C 8.1 °C 1020.7 hPa Calm   6.4 km/h 56% 0.0 mm 111 W/m2
16:28 16.8 °C 8.2 °C 1020.7 hPa West 6.4 km/h 9.7 km/h 57% 0.0 mm 125 W/m2
16:33 16.6 °C 8.6 °C 1020.7 hPa WNW 3.2 km/h 6.4 km/h 59% 0.0 mm 149 W/m2
16:38 16.5 °C 8.5 °C 1020.7 hPa West 4.7 km/h 12.9 km/h 59% 0.0 mm 165 W/m2
16:43 16.4 °C 8.4 °C 1020.7 hPa West 9.7 km/h 12.9 km/h 59% 0.0 mm 151 W/m2
16:48 16.4 °C 8.4 °C 1020.7 hPa West 9.7 km/h 9.7 km/h 59% 0.0 mm 135 W/m2
16:53 16.3 °C 8.3 °C 1020.7 hPa WSW 6.4 km/h 8 km/h 59% 0.0 mm 132 W/m2
16:58 16.3 °C 8.5 °C 1020.7 hPa West 3.2 km/h 9.7 km/h 60% 0.0 mm 120 W/m2
17:03 16.3 °C 8.5 °C 1020.7 hPa WNW 3.2 km/h 11.3 km/h 60% 0.0 mm 132 W/m2
17:08 16.2 °C 8.4 °C 1020.7 hPa West 3.2 km/h 6.4 km/h 60% 0.0 mm 163 W/m2
17:14 16.3 °C 8.5 °C 1021.0 hPa NW 1.4 km/h 4.8 km/h 60% 0.0 mm 148 W/m2
17:19 16.3 °C 8.5 °C 1021.0 hPa West 6.4 km/h 9.7 km/h 60% 0.0 mm 183 W/m2
17:24 16.4 °C 8.6 °C 1021.0 hPa WNW 4.7 km/h 6.4 km/h 60% 0.0 mm 97 W/m2
17:29 16.4 °C 8.4 °C 1021.0 hPa West 9.7 km/h 9.7 km/h 59% 0.0 mm 109 W/m2
17:34 16.3 °C 8 °C 1021.0 hPa WNW 3.2 km/h 11.3 km/h 58% 0.0 mm 86 W/m2
17:39 16.3 °C 8.3 °C 1021.3 hPa West 3.2 km/h 4.8 km/h 59% 0.0 mm 60 W/m2
17:44 16.1 °C 8.3 °C 1021.0 hPa WNW 4.7 km/h 4.8 km/h 60% 0.0 mm 49 W/m2
17:49 15.9 °C 8.1 °C 1021.0 hPa West 1.4 km/h 9.7 km/h 60% 0.0 mm 44 W/m2
17:54 15.8 °C 8.3 °C 1021.3 hPa West 3.2 km/h 4.8 km/h 61% 0.0 mm 39 W/m2
17:59 15.7 °C 8.2 °C 1021.3 hPa West 3.2 km/h 6.4 km/h 61% 0.0 mm 37 W/m2
18:04 15.6 °C 8.1 °C 1021.3 hPa NW 3.2 km/h 9.7 km/h 61% 0.0 mm 35 W/m2
18:09 15.4 °C 8.2 °C 1021.3 hPa WNW 1.4 km/h 3.2 km/h 62% 0.0 mm 30 W/m2
18:14 15.4 °C 8.2 °C 1021.3 hPa NNW 1.4 km/h 9.7 km/h 62% 0.0 mm 19 W/m2
18:19 15.3 °C 8.3 °C 1021.3 hPa WNW 4.7 km/h 6.4 km/h 63% 0.0 mm 16 W/m2
18:24 15.2 °C 8.2 °C 1021.7 hPa NW 3.2 km/h 4.8 km/h 63% 0.0 mm 12 W/m2
18:29 15.2 °C 8.4 °C 1021.3 hPa NW 1.4 km/h 3.2 km/h 64% 0.0 mm 9 W/m2
18:34 15.1 °C 8.3 °C 1021.7 hPa NW 3.2 km/h 6.4 km/h 64% 0.0 mm 5 W/m2
18:39 15.1 °C 8.3 °C 1021.7 hPa WNW 3.2 km/h 3.2 km/h 64% 0.0 mm 0 W/m2
18:44 15 °C 8.2 °C 1022.0 hPa WNW 4.7 km/h 6.4 km/h 64% 0.0 mm 0 W/m2
18:49 14.9 °C 8.1 °C 1022.0 hPa WNW 3.2 km/h 4.8 km/h 64% 0.0 mm 0 W/m2
18:54 14.8 °C 8.3 °C 1022.0 hPa West 4.7 km/h 6.4 km/h 65% 0.0 mm 0 W/m2
18:59 14.8 °C 8.3 °C 1022.0 hPa NW 4.7 km/h 6.4 km/h 65% 0.0 mm 0 W/m2
19:04 14.8 °C 8.3 °C 1022.0 hPa Calm   3.2 km/h 65% 0.0 mm 0 W/m2
19:09 14.7 °C 8.4 °C 1022.0 hPa Calm   1.6 km/h 66% 0.0 mm 0 W/m2
19:14 14.6 °C 8.3 °C 1022.0 hPa Calm   3.2 km/h 66% 0.0 mm 0 W/m2
19:19 14.4 °C 8.3 °C 1022.4 hPa WNW 3.2 km/h 3.2 km/h 67% 0.0 mm 0 W/m2
19:24 14.3 °C 8.3 °C 1022.4 hPa WNW 6.4 km/h 9.7 km/h 67% 0.0 mm 0 W/m2
19:29 14.3 °C 8.3 °C 1022.4 hPa West 3.2 km/h 6.4 km/h 67% 0.0 mm 0 W/m2
19:34 14.2 °C 8.2 °C 1022.4 hPa West 9.7 km/h 9.7 km/h 67% 0.0 mm 0 W/m2
19:39 14.2 °C 8.4 °C 1022.7 hPa West 3.2 km/h 4.8 km/h 68% 0.0 mm 0 W/m2
19:44 14.1 °C 8.5 °C 1022.7 hPa WSW 1.4 km/h 6.4 km/h 69% 0.0 mm 0 W/m2
19:49 14 °C 8.4 °C 1022.7 hPa West 1.4 km/h 4.8 km/h 69% 0.0 mm 0 W/m2
19:54 13.9 °C 8.3 °C 1022.7 hPa West 3.2 km/h 9.7 km/h 69% 0.0 mm 0 W/m2
19:59 13.9 °C 8.3 °C 1022.7 hPa WNW 4.7 km/h 4.8 km/h 69% 0.0 mm 0 W/m2
20:04 13.9 °C 8.3 °C 1022.7 hPa WNW 7.9 km/h 12.9 km/h 69% 0.0 mm 0 W/m2
20:09 13.9 °C 8.3 °C 1022.7 hPa WNW 4.7 km/h 6.4 km/h 69% 0.0 mm 0 W/m2
20:14 13.8 °C 8.2 °C 1023.0 hPa WNW 1.4 km/h 12.9 km/h 69% 0.0 mm 0 W/m2
20:19 13.8 °C 8.2 °C 1023.0 hPa West 4.7 km/h 4.8 km/h 69% 0.0 mm 0 W/m2
20:24 13.7 °C 8.1 °C 1023.0 hPa West 4.7 km/h 11.3 km/h 69% 0.0 mm 0 W/m2
20:29 13.7 °C 8.1 °C 1023.0 hPa West 1.4 km/h 6.4 km/h 69% 0.0 mm 0 W/m2
20:34 13.6 °C 8.2 °C 1023.0 hPa WSW 1.4 km/h 8 km/h 70% 0.0 mm 0 W/m2
20:39 13.4 °C 8 °C 1023.0 hPa NW 3.2 km/h 4.8 km/h 70% 0.0 mm 0 W/m2
20:44 13.4 °C 8 °C 1023.0 hPa West 4.7 km/h 4.8 km/h 70% 0.0 mm 0 W/m2
20:49 13.3 °C 7.9 °C 1023.0 hPa West 3.2 km/h 4.8 km/h 70% 0.0 mm 0 W/m2
20:54 13.3 °C 7.9 °C 1023.4 hPa West 3.2 km/h 6.4 km/h 70% 0.0 mm 0 W/m2
20:59 13.3 °C 7.9 °C 1023.4 hPa West 4.7 km/h 9.7 km/h 70% 0.0 mm 0 W/m2
21:04 13.2 °C 8.1 °C 1023.4 hPa West 3.2 km/h 4.8 km/h 71% 0.0 mm 0 W/m2
21:09 13.1 °C 8 °C 1023.4 hPa WNW 3.2 km/h 4.8 km/h 71% 0.0 mm 0 W/m2
21:14 13 °C 7.9 °C 1023.4 hPa West 6.4 km/h 8 km/h 71% 0.0 mm 0 W/m2
21:19 12.9 °C 7.8 °C 1023.4 hPa West 11.1 km/h 11.3 km/h 71% 0.0 mm 0 W/m2
21:24 12.9 °C 8 °C 1023.4 hPa WNW 4.7 km/h 12.9 km/h 72% 0.0 mm 0 W/m2
21:29 12.8 °C 7.9 °C 1023.7 hPa West 6.4 km/h 6.4 km/h 72% 0.0 mm 0 W/m2
21:34 12.8 °C 7.9 °C 1023.7 hPa West 3.2 km/h 12.9 km/h 72% 0.0 mm 0 W/m2
21:39 12.7 °C 8 °C 1023.7 hPa West 6.4 km/h 11.3 km/h 73% 0.0 mm 0 W/m2
21:44 12.6 °C 8.1 °C 1023.7 hPa West 6.4 km/h 8 km/h 74% 0.0 mm 0 W/m2
21:49 12.6 °C 8.1 °C 1023.7 hPa West 6.4 km/h 6.4 km/h 74% 0.0 mm 0 W/m2
21:54 12.6 °C 8.3 °C 1024.0 hPa WSW 1.4 km/h 9.7 km/h 75% 0.0 mm 0 W/m2
21:59 12.6 °C 8.3 °C 1024.0 hPa West 1.4 km/h 6.4 km/h 75% 0.0 mm 0 W/m2
22:04 12.6 °C 8.3 °C 1024.0 hPa WSW 3.2 km/h 9.7 km/h 75% 0.0 mm 0 W/m2
22:09 12.6 °C 8.3 °C 1024.0 hPa WNW 7.9 km/h 9.7 km/h 75% 0.0 mm 0 W/m2
22:14 12.4 °C 8.3 °C 1024.4 hPa West 4.7 km/h 11.3 km/h 76% 0.0 mm 0 W/m2
22:20 12.4 °C 8.3 °C 1024.4 hPa WNW 4.7 km/h 8 km/h 76% 0.0 mm 0 W/m2
22:25 12.4 °C 8.3 °C 1024.4 hPa West 6.4 km/h 11.3 km/h 76% 0.0 mm 0 W/m2
22:30 12.3 °C 8.2 °C 1024.4 hPa NW 3.2 km/h 4.8 km/h 76% 0.0 mm 0 W/m2
22:35 12.2 °C 8.3 °C 1024.4 hPa WNW 1.4 km/h 3.2 km/h 77% 0.0 mm 0 W/m2
22:40 12 °C 8.1 °C 1024.7 hPa WNW 1.4 km/h 4.8 km/h 77% 0.0 mm 0 W/m2
22:45 11.9 °C 8.2 °C 1024.7 hPa West 4.7 km/h 6.4 km/h 78% 0.0 mm 0 W/m2
22:50 11.9 °C 8.2 °C 1024.7 hPa NW 1.4 km/h 3.2 km/h 78% 0.0 mm 0 W/m2
22:55 11.8 °C 8.3 °C 1024.4 hPa Calm   6.4 km/h 79% 0.0 mm 0 W/m2
23:00 11.8 °C 8.3 °C 1024.7 hPa NW 1.4 km/h 3.2 km/h 79% 0.0 mm 0 W/m2
23:05 11.6 °C 8.1 °C 1024.7 hPa Calm   1.6 km/h 79% 0.0 mm 0 W/m2
23:10 11.5 °C 8.2 °C 1024.7 hPa Calm   3.2 km/h 80% 0.0 mm 0 W/m2
23:15 11.3 °C 8 °C 1024.4 hPa Calm     80% 0.0 mm 0 W/m2
23:20 11.2 °C 8.1 °C 1024.4 hPa Calm   3.2 km/h 81% 0.0 mm 0 W/m2
23:25 11.1 °C 8.1 °C 1024.4 hPa WNW 1.4 km/h 4.8 km/h 82% 0.0 mm 0 W/m2
23:30 11 °C 8.2 °C 1024.7 hPa WNW 1.4 km/h 1.6 km/h 83% 0.0 mm 0 W/m2
23:35 11 °C 8.2 °C 1024.7 hPa WSW 1.4 km/h 6.4 km/h 83% 0.0 mm 0 W/m2
23:40 11.1 °C 8.5 °C 1024.7 hPa West 4.7 km/h 4.8 km/h 84% 0.0 mm 0 W/m2
23:45 11.3 °C 8.7 °C 1024.7 hPa West 1.4 km/h 6.4 km/h 84% 0.0 mm 0 W/m2
23:50 11.5 °C 8.7 °C 1024.7 hPa WSW 1.4 km/h 4.8 km/h 83% 0.0 mm 0 W/m2
23:55 11.6 °C 8.6 °C 1025.1 hPa WSW 1.4 km/h 3.2 km/h 82% 0.0 mm 0 W/m2
Juneau County Weather
Compliments of Weather Underground - 4 mb